sensor_id;sensor_type;location;lat;lon;timestamp;temperature;humidity
7972;DHT22;4031;49.758;6.120;2023-02-22T00:01:30;-1.20;99.90
7972;DHT22;4031;49.758;6.120;2023-02-22T00:04:03;-1.30;99.90
7972;DHT22;4031;49.758;6.120;2023-02-22T00:06:30;-1.40;99.90
7972;DHT22;4031;49.758;6.120;2023-02-22T00:08:57;-1.40;99.90
7972;DHT22;4031;49.758;6.120;2023-02-22T00:11:23;-1.40;99.90
7972;DHT22;4031;49.758;6.120;2023-02-22T00:13:49;-1.40;99.90
7972;DHT22;4031;49.758;6.120;2023-02-22T00:16:17;-1.30;99.90
7972;DHT22;4031;49.758;6.120;2023-02-22T00:18:44;-1.40;99.90
7972;DHT22;4031;49.758;6.120;2023-02-22T00:21:12;-1.40;99.90
7972;DHT22;4031;49.758;6.120;2023-02-22T00:23:41;-1.40;99.90
7972;DHT22;4031;49.758;6.120;2023-02-22T00:26:11;-1.60;99.90
7972;DHT22;4031;49.758;6.120;2023-02-22T00:28:43;-1.60;99.90
7972;DHT22;4031;49.758;6.120;2023-02-22T00:31:10;-1.60;99.90
7972;DHT22;4031;49.758;6.120;2023-02-22T00:33:37;-1.70;99.90
7972;DHT22;4031;49.758;6.120;2023-02-22T00:36:04;-1.60;99.90
7972;DHT22;4031;49.758;6.120;2023-02-22T00:38:29;-1.60;99.90
7972;DHT22;4031;49.758;6.120;2023-02-22T00:40:55;-1.60;99.90
7972;DHT22;4031;49.758;6.120;2023-02-22T00:43:21;-1.60;99.90
7972;DHT22;4031;49.758;6.120;2023-02-22T00:45:47;-1.60;99.90
7972;DHT22;4031;49.758;6.120;2023-02-22T00:48:13;-1.70;99.90
7972;DHT22;4031;49.758;6.120;2023-02-22T00:50:39;-1.70;99.90
7972;DHT22;4031;49.758;6.120;2023-02-22T00:53:05;-1.80;99.90
7972;DHT22;4031;49.758;6.120;2023-02-22T00:55:34;-1.80;99.90
7972;DHT22;4031;49.758;6.120;2023-02-22T00:58:01;-1.80;99.90
7972;DHT22;4031;49.758;6.120;2023-02-22T01:00:33;-1.80;99.90
7972;DHT22;4031;49.758;6.120;2023-02-22T01:03:02;-1.70;99.90
7972;DHT22;4031;49.758;6.120;2023-02-22T01:05:30;-1.60;99.90
7972;DHT22;4031;49.758;6.120;2023-02-22T01:07:57;-1.50;99.90
7972;DHT22;4031;49.758;6.120;2023-02-22T01:10:26;-1.50;99.90
7972;DHT22;4031;49.758;6.120;2023-02-22T01:12:54;-1.60;99.90
7972;DHT22;4031;49.758;6.120;2023-02-22T01:15:24;-1.60;99.90
7972;DHT22;4031;49.758;6.120;2023-02-22T01:17:53;-1.60;99.90
7972;DHT22;4031;49.758;6.120;2023-02-22T01:20:21;-1.60;99.90
7972;DHT22;4031;49.758;6.120;2023-02-22T01:22:55;-1.70;99.90
7972;DHT22;4031;49.758;6.120;2023-02-22T01:25:25;-1.80;99.90
7972;DHT22;4031;49.758;6.120;2023-02-22T01:27:53;-1.80;99.90
7972;DHT22;4031;49.758;6.120;2023-02-22T01:30:21;-2.00;99.90
7972;DHT22;4031;49.758;6.120;2023-02-22T01:32:52;-2.00;99.90
7972;DHT22;4031;49.758;6.120;2023-02-22T01:35:21;-1.90;99.90
7972;DHT22;4031;49.758;6.120;2023-02-22T01:37:48;-1.90;99.90
7972;DHT22;4031;49.758;6.120;2023-02-22T01:40:18;-1.90;99.90
7972;DHT22;4031;49.758;6.120;2023-02-22T01:42:50;-1.90;99.90
7972;DHT22;4031;49.758;6.120;2023-02-22T01:48:19;-1.90;99.90
7972;DHT22;4031;49.758;6.120;2023-02-22T01:51:10;-2.00;99.90
7972;DHT22;4031;49.758;6.120;2023-02-22T01:53:44;-1.90;99.90
7972;DHT22;4031;49.758;6.120;2023-02-22T01:56:15;-1.90;99.90
7972;DHT22;4031;49.758;6.120;2023-02-22T01:58:45;-1.90;99.90
7972;DHT22;4031;49.758;6.120;2023-02-22T02:01:15;-2.00;99.90
7972;DHT22;4031;49.758;6.120;2023-02-22T02:03:43;-1.90;99.90
7972;DHT22;4031;49.758;6.120;2023-02-22T02:06:12;-2.00;99.90
7972;DHT22;4031;49.758;6.120;2023-02-22T02:11:38;-2.00;99.90
7972;DHT22;4031;49.758;6.120;2023-02-22T02:14:06;-2.00;99.90
7972;DHT22;4031;49.758;6.120;2023-02-22T02:16:41;-2.10;99.90
7972;DHT22;4031;49.758;6.120;2023-02-22T02:19:37;-2.10;99.90
7972;DHT22;4031;49.758;6.120;2023-02-22T02:22:25;-2.20;99.90
7972;DHT22;4031;49.758;6.120;2023-02-22T02:35:05;-2.30;99.90
7972;DHT22;4031;49.758;6.120;2023-02-22T02:38:07;-2.30;99.90
7972;DHT22;4031;49.758;6.120;2023-02-22T02:40:47;-2.30;99.90
7972;DHT22;4031;49.758;6.120;2023-02-22T02:46:13;-2.30;99.90
7972;DHT22;4031;49.758;6.120;2023-02-22T02:48:48;-2.30;99.90
7972;DHT22;4031;49.758;6.120;2023-02-22T02:51:20;-2.40;99.90
7972;DHT22;4031;49.758;6.120;2023-02-22T02:53:47;-2.30;99.90
7972;DHT22;4031;49.758;6.120;2023-02-22T02:56:15;-2.40;99.90
7972;DHT22;4031;49.758;6.120;2023-02-22T02:58:46;-2.40;99.90
7972;DHT22;4031;49.758;6.120;2023-02-22T03:01:37;-2.40;99.90
7972;DHT22;4031;49.758;6.120;2023-02-22T03:07:44;-2.40;99.90
7972;DHT22;4031;49.758;6.120;2023-02-22T03:13:08;-2.40;99.90
7972;DHT22;4031;49.758;6.120;2023-02-22T03:18:26;-2.40;99.90
7972;DHT22;4031;49.758;6.120;2023-02-22T03:21:23;-2.40;99.90
7972;DHT22;4031;49.758;6.120;2023-02-22T03:30:02;-2.40;99.90
7972;DHT22;4031;49.758;6.120;2023-02-22T03:32:35;-2.40;99.90
7972;DHT22;4031;49.758;6.120;2023-02-22T03:35:11;-2.40;99.90
7972;DHT22;4031;49.758;6.120;2023-02-22T03:37:42;-2.40;99.90
7972;DHT22;4031;49.758;6.120;2023-02-22T03:40:15;-2.40;99.90
7972;DHT22;4031;49.758;6.120;2023-02-22T03:42:53;-2.30;99.90
7972;DHT22;4031;49.758;6.120;2023-02-22T03:45:24;-2.30;99.90
7972;DHT22;4031;49.758;6.120;2023-02-22T03:48:05;-2.20;99.90
7972;DHT22;4031;49.758;6.120;2023-02-22T03:50:36;-2.10;99.90
7972;DHT22;4031;49.758;6.120;2023-02-22T03:53:03;-2.10;99.90
7972;DHT22;4031;49.758;6.120;2023-02-22T03:55:29;-2.10;99.90
7972;DHT22;4031;49.758;6.120;2023-02-22T03:58:01;-2.10;99.90
7972;DHT22;4031;49.758;6.120;2023-02-22T04:00:32;-2.00;99.90
7972;DHT22;4031;49.758;6.120;2023-02-22T04:02:59;-2.10;99.90
7972;DHT22;4031;49.758;6.120;2023-02-22T04:05:25;-2.10;99.90
7972;DHT22;4031;49.758;6.120;2023-02-22T04:07:52;-2.10;99.90
7972;DHT22;4031;49.758;6.120;2023-02-22T04:10:18;-2.10;99.90
7972;DHT22;4031;49.758;6.120;2023-02-22T04:12:44;-2.10;99.90
7972;DHT22;4031;49.758;6.120;2023-02-22T04:15:17;-2.10;99.90
7972;DHT22;4031;49.758;6.120;2023-02-22T04:17:47;-2.10;99.90
7972;DHT22;4031;49.758;6.120;2023-02-22T04:20:13;-2.10;99.90
7972;DHT22;4031;49.758;6.120;2023-02-22T04:22:40;-2.10;99.90
7972;DHT22;4031;49.758;6.120;2023-02-22T04:25:06;-2.10;99.90
7972;DHT22;4031;49.758;6.120;2023-02-22T04:27:32;-2.10;99.90
7972;DHT22;4031;49.758;6.120;2023-02-22T04:29:58;-2.00;99.90
7972;DHT22;4031;49.758;6.120;2023-02-22T04:32:24;-2.00;99.90
7972;DHT22;4031;49.758;6.120;2023-02-22T04:34:50;-2.10;99.90
7972;DHT22;4031;49.758;6.120;2023-02-22T04:37:16;-2.10;99.90
7972;DHT22;4031;49.758;6.120;2023-02-22T04:39:41;-2.20;99.90
7972;DHT22;4031;49.758;6.120;2023-02-22T04:42:07;-2.20;99.90
7972;DHT22;4031;49.758;6.120;2023-02-22T04:44:33;-2.20;99.90
7972;DHT22;4031;49.758;6.120;2023-02-22T04:46:58;-2.30;99.90
7972;DHT22;4031;49.758;6.120;2023-02-22T04:49:24;-2.30;99.90
7972;DHT22;4031;49.758;6.120;2023-02-22T04:51:50;-2.40;99.90
7972;DHT22;4031;49.758;6.120;2023-02-22T04:54:16;-2.50;99.90
7972;DHT22;4031;49.758;6.120;2023-02-22T04:56:43;-2.60;99.90
7972;DHT22;4031;49.758;6.120;2023-02-22T04:59:09;-2.60;99.90
7972;DHT22;4031;49.758;6.120;2023-02-22T05:01:36;-2.70;99.90
7972;DHT22;4031;49.758;6.120;2023-02-22T05:04:03;-2.70;99.90
7972;DHT22;4031;49.758;6.120;2023-02-22T05:06:30;-2.70;99.90
7972;DHT22;4031;49.758;6.120;2023-02-22T05:08:55;-2.60;99.90
7972;DHT22;4031;49.758;6.120;2023-02-22T05:11:21;-2.70;99.90
7972;DHT22;4031;49.758;6.120;2023-02-22T05:13:47;-2.80;99.90
7972;DHT22;4031;49.758;6.120;2023-02-22T05:16:13;-2.80;99.90
7972;DHT22;4031;49.758;6.120;2023-02-22T05:18:39;-2.80;99.90
7972;DHT22;4031;49.758;6.120;2023-02-22T05:21:05;-2.80;99.90
7972;DHT22;4031;49.758;6.120;2023-02-22T05:23:31;-2.90;99.90
7972;DHT22;4031;49.758;6.120;2023-02-22T05:25:58;-2.90;99.90
7972;DHT22;4031;49.758;6.120;2023-02-22T05:28:24;-2.90;99.90
7972;DHT22;4031;49.758;6.120;2023-02-22T05:30:50;-2.90;99.90
7972;DHT22;4031;49.758;6.120;2023-02-22T05:33:15;-2.90;99.90
7972;DHT22;4031;49.758;6.120;2023-02-22T05:35:42;-2.90;99.90
7972;DHT22;4031;49.758;6.120;2023-02-22T05:38:10;-2.90;99.90
7972;DHT22;4031;49.758;6.120;2023-02-22T05:40:40;-2.90;99.90
7972;DHT22;4031;49.758;6.120;2023-02-22T05:43:06;-2.90;99.90
7972;DHT22;4031;49.758;6.120;2023-02-22T05:45:32;-2.90;99.90
7972;DHT22;4031;49.758;6.120;2023-02-22T05:47:58;-2.90;99.90
7972;DHT22;4031;49.758;6.120;2023-02-22T05:50:25;-2.90;99.90
7972;DHT22;4031;49.758;6.120;2023-02-22T05:52:51;-3.10;99.90
7972;DHT22;4031;49.758;6.120;2023-02-22T05:55:20;-3.00;99.90
7972;DHT22;4031;49.758;6.120;2023-02-22T05:57:47;-2.90;99.90
7972;DHT22;4031;49.758;6.120;2023-02-22T06:00:16;-2.80;99.90
7972;DHT22;4031;49.758;6.120;2023-02-22T06:02:44;-3.00;99.90
7972;DHT22;4031;49.758;6.120;2023-02-22T06:05:10;-2.90;99.90
7972;DHT22;4031;49.758;6.120;2023-02-22T06:07:35;-3.00;99.90
7972;DHT22;4031;49.758;6.120;2023-02-22T06:10:01;-3.00;99.90
7972;DHT22;4031;49.758;6.120;2023-02-22T06:12:27;-3.00;99.90
7972;DHT22;4031;49.758;6.120;2023-02-22T06:14:53;-2.80;99.90
7972;DHT22;4031;49.758;6.120;2023-02-22T06:17:18;-3.00;99.90
7972;DHT22;4031;49.758;6.120;2023-02-22T06:19:44;-3.10;99.90
7972;DHT22;4031;49.758;6.120;2023-02-22T06:22:17;-3.10;99.90
7972;DHT22;4031;49.758;6.120;2023-02-22T06:24:44;-3.20;99.90
7972;DHT22;4031;49.758;6.120;2023-02-22T06:27:10;-3.20;99.90
7972;DHT22;4031;49.758;6.120;2023-02-22T06:29:35;-3.10;99.90
7972;DHT22;4031;49.758;6.120;2023-02-22T06:32:02;-3.10;99.90
7972;DHT22;4031;49.758;6.120;2023-02-22T06:34:27;-3.00;99.90
7972;DHT22;4031;49.758;6.120;2023-02-22T06:36:53;-3.10;99.90
7972;DHT22;4031;49.758;6.120;2023-02-22T06:39:19;-3.00;99.90
7972;DHT22;4031;49.758;6.120;2023-02-22T06:41:45;-3.10;99.90
7972;DHT22;4031;49.758;6.120;2023-02-22T06:44:13;-3.10;99.90
7972;DHT22;4031;49.758;6.120;2023-02-22T06:46:39;-3.10;99.90
7972;DHT22;4031;49.758;6.120;2023-02-22T06:49:05;-3.00;99.90
7972;DHT22;4031;49.758;6.120;2023-02-22T06:51:35;-3.00;99.90
7972;DHT22;4031;49.758;6.120;2023-02-22T06:54:02;-2.90;99.90
7972;DHT22;4031;49.758;6.120;2023-02-22T06:56:28;-2.90;99.90
7972;DHT22;4031;49.758;6.120;2023-02-22T06:58:54;-2.80;99.90
7972;DHT22;4031;49.758;6.120;2023-02-22T07:01:20;-2.70;99.90
7972;DHT22;4031;49.758;6.120;2023-02-22T07:03:48;-2.70;99.90
7972;DHT22;4031;49.758;6.120;2023-02-22T07:06:14;-2.70;99.90
7972;DHT22;4031;49.758;6.120;2023-02-22T07:08:39;-2.60;99.90
7972;DHT22;4031;49.758;6.120;2023-02-22T07:11:05;-2.60;99.90
7972;DHT22;4031;49.758;6.120;2023-02-22T07:13:31;-2.50;99.90
7972;DHT22;4031;49.758;6.120;2023-02-22T07:15:57;-2.30;99.90
7972;DHT22;4031;49.758;6.120;2023-02-22T07:18:22;-2.20;99.90
7972;DHT22;4031;49.758;6.120;2023-02-22T07:20:48;-2.00;99.90
7972;DHT22;4031;49.758;6.120;2023-02-22T07:23:15;-1.90;99.90
7972;DHT22;4031;49.758;6.120;2023-02-22T07:25:42;-1.80;99.90
7972;DHT22;4031;49.758;6.120;2023-02-22T07:28:09;-1.60;99.90
7972;DHT22;4031;49.758;6.120;2023-02-22T07:30:35;-1.50;99.90
7972;DHT22;4031;49.758;6.120;2023-02-22T07:33:04;-1.30;99.90
7972;DHT22;4031;49.758;6.120;2023-02-22T07:35:33;-1.20;99.90
7972;DHT22;4031;49.758;6.120;2023-02-22T07:38:07;-1.20;99.90
7972;DHT22;4031;49.758;6.120;2023-02-22T07:40:34;-1.10;99.90
7972;DHT22;4031;49.758;6.120;2023-02-22T07:43:02;-1.00;99.90
7972;DHT22;4031;49.758;6.120;2023-02-22T07:45:50;-0.90;99.90
7972;DHT22;4031;49.758;6.120;2023-02-22T07:48:19;-0.90;99.90
7972;DHT22;4031;49.758;6.120;2023-02-22T07:50:46;-0.80;99.90
7972;DHT22;4031;49.758;6.120;2023-02-22T07:53:23;-0.70;99.90
7972;DHT22;4031;49.758;6.120;2023-02-22T07:55:55;-0.60;99.90
7972;DHT22;4031;49.758;6.120;2023-02-22T07:58:23;-0.50;99.90
7972;DHT22;4031;49.758;6.120;2023-02-22T08:00:50;-0.40;99.90
7972;DHT22;4031;49.758;6.120;2023-02-22T08:03:18;-0.20;99.90
7972;DHT22;4031;49.758;6.120;2023-02-22T08:05:48;-0.10;99.90
7972;DHT22;4031;49.758;6.120;2023-02-22T08:08:15;0.10;99.90
7972;DHT22;4031;49.758;6.120;2023-02-22T08:10:42;0.20;99.90
7972;DHT22;4031;49.758;6.120;2023-02-22T08:13:08;0.40;99.90
7972;DHT22;4031;49.758;6.120;2023-02-22T08:15:36;0.70;99.90
7972;DHT22;4031;49.758;6.120;2023-02-22T08:18:07;1.20;99.90
7972;DHT22;4031;49.758;6.120;2023-02-22T08:20:35;1.70;99.90
7972;DHT22;4031;49.758;6.120;2023-02-22T08:23:03;2.30;99.90
7972;DHT22;4031;49.758;6.120;2023-02-22T08:25:29;2.80;99.90
7972;DHT22;4031;49.758;6.120;2023-02-22T08:28:00;3.10;99.90
7972;DHT22;4031;49.758;6.120;2023-02-22T08:30:29;3.40;99.90
7972;DHT22;4031;49.758;6.120;2023-02-22T08:32:56;3.80;99.90
7972;DHT22;4031;49.758;6.120;2023-02-22T08:35:22;4.10;99.90
7972;DHT22;4031;49.758;6.120;2023-02-22T08:37:52;4.60;99.90
7972;DHT22;4031;49.758;6.120;2023-02-22T08:40:22;5.00;99.90
7972;DHT22;4031;49.758;6.120;2023-02-22T08:42:49;5.60;99.90
7972;DHT22;4031;49.758;6.120;2023-02-22T08:45:15;6.00;99.90
7972;DHT22;4031;49.758;6.120;2023-02-22T08:47:42;6.40;99.90
7972;DHT22;4031;49.758;6.120;2023-02-22T08:50:13;6.40;99.90
7972;DHT22;4031;49.758;6.120;2023-02-22T08:52:42;6.80;99.90
7972;DHT22;4031;49.758;6.120;2023-02-22T08:55:08;7.20;99.90
7972;DHT22;4031;49.758;6.120;2023-02-22T08:57:34;7.30;99.90
7972;DHT22;4031;49.758;6.120;2023-02-22T09:00:00;7.50;99.90
7972;DHT22;4031;49.758;6.120;2023-02-22T09:02:25;8.00;99.90
7972;DHT22;4031;49.758;6.120;2023-02-22T09:04:52;8.50;99.90
7972;DHT22;4031;49.758;6.120;2023-02-22T09:07:17;9.10;99.90
7972;DHT22;4031;49.758;6.120;2023-02-22T09:09:43;9.70;99.90
7972;DHT22;4031;49.758;6.120;2023-02-22T09:12:10;9.80;99.90
7972;DHT22;4031;49.758;6.120;2023-02-22T09:14:36;10.40;99.90
7972;DHT22;4031;49.758;6.120;2023-02-22T09:17:02;11.10;99.90
7972;DHT22;4031;49.758;6.120;2023-02-22T09:19:29;11.80;99.90
7972;DHT22;4031;49.758;6.120;2023-02-22T09:21:56;12.20;99.90
7972;DHT22;4031;49.758;6.120;2023-02-22T09:24:24;12.70;99.90
7972;DHT22;4031;49.758;6.120;2023-02-22T09:26:50;12.80;99.90
7972;DHT22;4031;49.758;6.120;2023-02-22T09:29:23;13.00;99.90
7972;DHT22;4031;49.758;6.120;2023-02-22T09:31:52;13.10;99.90
7972;DHT22;4031;49.758;6.120;2023-02-22T09:34:20;13.00;99.90
7972;DHT22;4031;49.758;6.120;2023-02-22T09:36:52;12.80;99.90
7972;DHT22;4031;49.758;6.120;2023-02-22T09:39:17;12.80;99.90
7972;DHT22;4031;49.758;6.120;2023-02-22T09:47:03;12.40;99.90
7972;DHT22;4031;49.758;6.120;2023-02-22T09:49:43;12.20;99.90
7972;DHT22;4031;49.758;6.120;2023-02-22T09:52:29;12.70;99.90
7972;DHT22;4031;49.758;6.120;2023-02-22T09:55:11;13.30;99.90
7972;DHT22;4031;49.758;6.120;2023-02-22T09:57:45;13.80;99.90
7972;DHT22;4031;49.758;6.120;2023-02-22T10:00:25;13.90;99.90
7972;DHT22;4031;49.758;6.120;2023-02-22T10:05:38;14.30;99.90
7972;DHT22;4031;49.758;6.120;2023-02-22T10:08:12;14.80;99.90
7972;DHT22;4031;49.758;6.120;2023-02-22T10:10:44;15.50;99.90
7972;DHT22;4031;49.758;6.120;2023-02-22T10:13:26;16.10;99.90
7972;DHT22;4031;49.758;6.120;2023-02-22T10:16:10;16.20;99.90
7972;DHT22;4031;49.758;6.120;2023-02-22T10:18:53;16.70;99.90
7972;DHT22;4031;49.758;6.120;2023-02-22T10:30:22;16.50;99.90
7972;DHT22;4031;49.758;6.120;2023-02-22T10:35:35;16.70;99.90
7972;DHT22;4031;49.758;6.120;2023-02-22T10:38:12;17.10;99.90
7972;DHT22;4031;49.758;6.120;2023-02-22T10:43:36;17.60;99.90
7972;DHT22;4031;49.758;6.120;2023-02-22T10:46:04;17.50;99.90
7972;DHT22;4031;49.758;6.120;2023-02-22T10:48:35;17.50;99.90
7972;DHT22;4031;49.758;6.120;2023-02-22T10:51:05;17.60;99.90
7972;DHT22;4031;49.758;6.120;2023-02-22T10:53:34;18.00;99.90
7972;DHT22;4031;49.758;6.120;2023-02-22T10:56:24;18.20;99.90
7972;DHT22;4031;49.758;6.120;2023-02-22T10:58:57;18.70;99.90
7972;DHT22;4031;49.758;6.120;2023-02-22T11:01:37;19.20;99.90
7972;DHT22;4031;49.758;6.120;2023-02-22T11:04:14;19.30;99.90
7972;DHT22;4031;49.758;6.120;2023-02-22T11:09:54;19.50;99.90
7972;DHT22;4031;49.758;6.120;2023-02-22T11:14:56;19.70;99.90
7972;DHT22;4031;49.758;6.120;2023-02-22T11:17:30;19.50;99.90
7972;DHT22;4031;49.758;6.120;2023-02-22T11:19:57;18.80;99.90
7972;DHT22;4031;49.758;6.120;2023-02-22T11:22:27;18.00;99.90
7972;DHT22;4031;49.758;6.120;2023-02-22T11:25:00;17.80;99.90
7972;DHT22;4031;49.758;6.120;2023-02-22T11:27:42;17.60;99.90
7972;DHT22;4031;49.758;6.120;2023-02-22T11:38:08;17.40;99.90
7972;DHT22;4031;49.758;6.120;2023-02-22T11:40:35;17.80;99.90
7972;DHT22;4031;49.758;6.120;2023-02-22T11:43:13;17.90;99.90
7972;DHT22;4031;49.758;6.120;2023-02-22T11:48:36;18.40;99.90
7972;DHT22;4031;49.758;6.120;2023-02-22T11:51:37;18.40;99.90
7972;DHT22;4031;49.758;6.120;2023-02-22T12:08:41;15.90;99.90
7972;DHT22;4031;49.758;6.120;2023-02-22T12:20:03;14.50;99.90
7972;DHT22;4031;49.758;6.120;2023-02-22T12:25:48;14.50;99.90
7972;DHT22;4031;49.758;6.120;2023-02-22T12:28:46;14.40;99.90
7972;DHT22;4031;49.758;6.120;2023-02-22T12:34:50;14.50;99.90
7972;DHT22;4031;49.758;6.120;2023-02-22T12:37:27;14.50;99.90
7972;DHT22;4031;49.758;6.120;2023-02-22T12:40:09;14.50;99.90
7972;DHT22;4031;49.758;6.120;2023-02-22T12:42:46;14.70;99.90
7972;DHT22;4031;49.758;6.120;2023-02-22T12:46:03;15.00;99.90
7972;DHT22;4031;49.758;6.120;2023-02-22T12:48:42;15.70;99.90
7972;DHT22;4031;49.758;6.120;2023-02-22T12:51:20;16.50;99.90
7972;DHT22;4031;49.758;6.120;2023-02-22T13:02:25;17.40;99.90
7972;DHT22;4031;49.758;6.120;2023-02-22T13:05:03;17.30;99.90
7972;DHT22;4031;49.758;6.120;2023-02-22T13:10:38;16.60;99.90
7972;DHT22;4031;49.758;6.120;2023-02-22T13:13:34;16.30;99.90
7972;DHT22;4031;49.758;6.120;2023-02-22T13:22:12;14.80;99.90
7972;DHT22;4031;49.758;6.120;2023-02-22T13:25:05;14.30;99.90
7972;DHT22;4031;49.758;6.120;2023-02-22T13:28:02;13.90;99.90
7972;DHT22;4031;49.758;6.120;2023-02-22T13:31:06;13.60;99.90
7972;DHT22;4031;49.758;6.120;2023-02-22T13:34:05;13.30;99.90
7972;DHT22;4031;49.758;6.120;2023-02-22T13:43:35;13.10;99.90
7972;DHT22;4031;49.758;6.120;2023-02-22T13:46:14;13.00;99.90
7972;DHT22;4031;49.758;6.120;2023-02-22T13:51:50;12.90;99.90
7972;DHT22;4031;49.758;6.120;2023-02-22T13:54:28;13.00;99.90
7972;DHT22;4031;49.758;6.120;2023-02-22T13:57:03;13.00;99.90
7972;DHT22;4031;49.758;6.120;2023-02-22T13:59:42;13.00;99.90
7972;DHT22;4031;49.758;6.120;2023-02-22T14:02:55;13.00;99.90
7972;DHT22;4031;49.758;6.120;2023-02-22T14:10:52;12.80;99.90
7972;DHT22;4031;49.758;6.120;2023-02-22T14:13:26;12.60;99.90
7972;DHT22;4031;49.758;6.120;2023-02-22T14:18:30;12.40;99.90
7972;DHT22;4031;49.758;6.120;2023-02-22T14:21:19;12.40;99.90
7972;DHT22;4031;49.758;6.120;2023-02-22T14:23:50;12.20;99.90
7972;DHT22;4031;49.758;6.120;2023-02-22T14:26:25;12.10;99.90
7972;DHT22;4031;49.758;6.120;2023-02-22T14:34:50;12.00;99.90
7972;DHT22;4031;49.758;6.120;2023-02-22T14:37:34;12.00;99.90
7972;DHT22;4031;49.758;6.120;2023-02-22T14:43:02;11.90;99.90
7972;DHT22;4031;49.758;6.120;2023-02-22T14:45:30;11.90;99.90
7972;DHT22;4031;49.758;6.120;2023-02-22T14:51:06;11.70;99.90
7972;DHT22;4031;49.758;6.120;2023-02-22T14:53:53;11.60;99.90
7972;DHT22;4031;49.758;6.120;2023-02-22T14:56:29;11.60;99.90
7972;DHT22;4031;49.758;6.120;2023-02-22T15:01:36;11.70;99.90
7972;DHT22;4031;49.758;6.120;2023-02-22T15:06:54;11.80;99.90
7972;DHT22;4031;49.758;6.120;2023-02-22T15:09:27;11.90;99.90
7972;DHT22;4031;49.758;6.120;2023-02-22T15:14:30;11.90;99.90
7972;DHT22;4031;49.758;6.120;2023-02-22T15:17:06;11.90;99.90
7972;DHT22;4031;49.758;6.120;2023-02-22T15:19:38;11.80;99.90
7972;DHT22;4031;49.758;6.120;2023-02-22T15:22:05;11.80;99.90
7972;DHT22;4031;49.758;6.120;2023-02-22T15:24:35;11.90;99.90
7972;DHT22;4031;49.758;6.120;2023-02-22T15:27:09;11.80;99.90
7972;DHT22;4031;49.758;6.120;2023-02-22T15:29:42;11.90;99.90
7972;DHT22;4031;49.758;6.120;2023-02-22T15:34:45;11.80;99.90
7972;DHT22;4031;49.758;6.120;2023-02-22T15:37:22;11.70;99.90
7972;DHT22;4031;49.758;6.120;2023-02-22T15:39:52;11.60;99.90
7972;DHT22;4031;49.758;6.120;2023-02-22T15:42:26;11.50;99.90
7972;DHT22;4031;49.758;6.120;2023-02-22T15:44:54;11.40;99.90
7972;DHT22;4031;49.758;6.120;2023-02-22T15:47:25;11.30;99.90
7972;DHT22;4031;49.758;6.120;2023-02-22T15:52:45;11.20;99.90
7972;DHT22;4031;49.758;6.120;2023-02-22T15:55:15;11.20;99.90
7972;DHT22;4031;49.758;6.120;2023-02-22T15:57:42;11.20;99.90
7972;DHT22;4031;49.758;6.120;2023-02-22T16:00:40;11.20;99.90
7972;DHT22;4031;49.758;6.120;2023-02-22T16:03:11;11.10;99.90
7972;DHT22;4031;49.758;6.120;2023-02-22T16:05:47;11.10;99.90
7972;DHT22;4031;49.758;6.120;2023-02-22T16:08:19;11.10;99.90
7972;DHT22;4031;49.758;6.120;2023-02-22T16:10:58;11.00;99.90
7972;DHT22;4031;49.758;6.120;2023-02-22T16:13:28;10.90;99.90
7972;DHT22;4031;49.758;6.120;2023-02-22T16:16:02;10.90;99.90
7972;DHT22;4031;49.758;6.120;2023-02-22T16:18:37;10.90;99.90
7972;DHT22;4031;49.758;6.120;2023-02-22T16:21:09;10.80;99.90
7972;DHT22;4031;49.758;6.120;2023-02-22T16:23:50;10.80;99.90
7972;DHT22;4031;49.758;6.120;2023-02-22T16:26:27;10.80;99.90
7972;DHT22;4031;49.758;6.120;2023-02-22T16:29:02;10.70;99.90
7972;DHT22;4031;49.758;6.120;2023-02-22T16:31:31;10.70;99.90
7972;DHT22;4031;49.758;6.120;2023-02-22T16:34:03;10.70;99.90
7972;DHT22;4031;49.758;6.120;2023-02-22T16:36:47;10.60;99.90
7972;DHT22;4031;49.758;6.120;2023-02-22T16:39:24;10.60;99.90
7972;DHT22;4031;49.758;6.120;2023-02-22T16:41:57;10.60;99.90
7972;DHT22;4031;49.758;6.120;2023-02-22T16:44:24;10.50;99.90
7972;DHT22;4031;49.758;6.120;2023-02-22T16:46:52;10.50;99.90
7972;DHT22;4031;49.758;6.120;2023-02-22T16:49:22;10.50;99.90
7972;DHT22;4031;49.758;6.120;2023-02-22T16:51:55;10.50;99.90
7972;DHT22;4031;49.758;6.120;2023-02-22T16:54:38;10.40;99.90
7972;DHT22;4031;49.758;6.120;2023-02-22T16:57:06;10.40;99.90
7972;DHT22;4031;49.758;6.120;2023-02-22T16:59:35;10.40;99.90
7972;DHT22;4031;49.758;6.120;2023-02-22T17:02:04;10.30;99.90
7972;DHT22;4031;49.758;6.120;2023-02-22T17:04:33;10.30;99.90
7972;DHT22;4031;49.758;6.120;2023-02-22T17:06:59;10.30;99.90
7972;DHT22;4031;49.758;6.120;2023-02-22T17:09:27;10.30;99.90
7972;DHT22;4031;49.758;6.120;2023-02-22T17:11:53;10.30;99.90
7972;DHT22;4031;49.758;6.120;2023-02-22T17:14:22;10.20;99.90
7972;DHT22;4031;49.758;6.120;2023-02-22T17:16:50;10.20;99.90
7972;DHT22;4031;49.758;6.120;2023-02-22T17:19:18;10.20;99.90
7972;DHT22;4031;49.758;6.120;2023-02-22T17:21:46;10.20;99.90
7972;DHT22;4031;49.758;6.120;2023-02-22T17:24:13;10.20;99.90
7972;DHT22;4031;49.758;6.120;2023-02-22T17:26:41;10.10;99.90
7972;DHT22;4031;49.758;6.120;2023-02-22T17:29:07;10.10;99.90
7972;DHT22;4031;49.758;6.120;2023-02-22T17:31:33;10.10;99.90
7972;DHT22;4031;49.758;6.120;2023-02-22T17:34:02;10.10;99.90
7972;DHT22;4031;49.758;6.120;2023-02-22T17:36:33;10.00;99.90
7972;DHT22;4031;49.758;6.120;2023-02-22T17:39:01;10.00;99.90
7972;DHT22;4031;49.758;6.120;2023-02-22T17:41:28;10.00;99.90
7972;DHT22;4031;49.758;6.120;2023-02-22T17:43:54;10.00;99.90
7972;DHT22;4031;49.758;6.120;2023-02-22T17:46:22;9.90;99.90
7972;DHT22;4031;49.758;6.120;2023-02-22T17:48:52;9.90;99.90
7972;DHT22;4031;49.758;6.120;2023-02-22T17:51:23;9.80;99.90
7972;DHT22;4031;49.758;6.120;2023-02-22T17:53:50;9.80;99.90
7972;DHT22;4031;49.758;6.120;2023-02-22T17:56:17;9.80;99.90
7972;DHT22;4031;49.758;6.120;2023-02-22T17:58:45;9.80;99.90
7972;DHT22;4031;49.758;6.120;2023-02-22T18:03:45;9.80;99.90
7972;DHT22;4031;49.758;6.120;2023-02-22T18:06:16;9.70;99.90
7972;DHT22;4031;49.758;6.120;2023-02-22T18:08:45;9.70;99.90
7972;DHT22;4031;49.758;6.120;2023-02-22T18:11:13;9.70;99.90
7972;DHT22;4031;49.758;6.120;2023-02-22T18:13:39;9.70;99.90
7972;DHT22;4031;49.758;6.120;2023-02-22T18:16:05;9.60;99.90
7972;DHT22;4031;49.758;6.120;2023-02-22T18:18:32;9.60;99.90
7972;DHT22;4031;49.758;6.120;2023-02-22T18:20:58;9.60;99.90
7972;DHT22;4031;49.758;6.120;2023-02-22T18:23:25;9.60;99.90
7972;DHT22;4031;49.758;6.120;2023-02-22T18:25:53;9.60;99.90
7972;DHT22;4031;49.758;6.120;2023-02-22T18:28:21;9.50;99.90
7972;DHT22;4031;49.758;6.120;2023-02-22T18:30:47;9.50;99.90
7972;DHT22;4031;49.758;6.120;2023-02-22T18:33:14;9.40;99.90
7972;DHT22;4031;49.758;6.120;2023-02-22T18:35:46;9.40;99.90
7972;DHT22;4031;49.758;6.120;2023-02-22T18:38:14;9.40;99.90
7972;DHT22;4031;49.758;6.120;2023-02-22T18:41:05;9.40;99.90
7972;DHT22;4031;49.758;6.120;2023-02-22T18:43:32;9.30;99.90
7972;DHT22;4031;49.758;6.120;2023-02-22T18:46:12;9.20;99.90
7972;DHT22;4031;49.758;6.120;2023-02-22T18:48:43;9.20;99.90
7972;DHT22;4031;49.758;6.120;2023-02-22T18:51:13;9.20;99.90
7972;DHT22;4031;49.758;6.120;2023-02-22T18:53:41;9.10;99.90
7972;DHT22;4031;49.758;6.120;2023-02-22T18:56:13;9.10;99.90
7972;DHT22;4031;49.758;6.120;2023-02-22T18:58:46;9.00;99.90
7972;DHT22;4031;49.758;6.120;2023-02-22T19:01:17;9.00;99.90
7972;DHT22;4031;49.758;6.120;2023-02-22T19:03:43;8.90;99.90
7972;DHT22;4031;49.758;6.120;2023-02-22T19:06:12;8.90;99.90
7972;DHT22;4031;49.758;6.120;2023-02-22T19:08:39;8.90;99.90
7972;DHT22;4031;49.758;6.120;2023-02-22T19:11:15;8.80;99.90
7972;DHT22;4031;49.758;6.120;2023-02-22T19:13:44;8.80;99.90
7972;DHT22;4031;49.758;6.120;2023-02-22T19:16:12;8.80;99.90